Time;durP1;ratioP1;P1;durP2;ratioP2;P2;SDS_P1;SDS_P2;PMS_P1;PMS_P2;Temp;Humidity;BMP_temperature;BMP_pressure;BME280_temperature;BME280_humidity;BME280_pressure;Samples;Min_cycle;Max_cycle;Signal;HPM_P1;HPM_P2
2021/12/27 00:02:16;;;;;;;20.77;10.00;;;;;2.10;99727.00;;;;4993351;28;20358;-71
2021/12/27 00:05:03;;;;;;;23.33;10.87;;;;;2.10;99719.00;;;;4998360;28;20303;-72
2021/12/27 00:07:51;;;;;;;18.40;10.50;;;;;2.10;99729.00;;;;4991520;28;20356;-71
2021/12/27 00:10:39;;;;;;;21.40;10.33;;;;;2.10;99713.00;;;;4982720;28;20224;-72
2021/12/27 00:13:25;;;;;;;18.73;10.07;;;;;2.10;99717.00;;;;4981881;28;20235;-71
2021/12/27 00:16:11;;;;;;;19.67;10.20;;;;;2.10;99719.00;;;;4982842;28;20261;-71
2021/12/27 00:18:57;;;;;;;17.80;9.10;;;;;2.20;99719.00;;;;4988995;28;20234;-72
2021/12/27 00:21:44;;;;;;;18.93;10.30;;;;;2.10;99717.00;;;;4984208;28;20235;-71
2021/12/27 00:24:30;;;;;;;18.53;10.17;;;;;2.00;99715.00;;;;4980246;28;20821;-70
2021/12/27 00:27:19;;;;;;;21.43;10.17;;;;;2.10;99706.00;;;;5002974;28;20234;-71
2021/12/27 00:30:07;;;;;;;21.13;10.33;;;;;2.10;99701.00;;;;5002901;28;20358;-72
2021/12/27 00:32:53;;;;;;;20.67;10.27;;;;;2.00;99708.00;;;;4992284;28;20763;-70
2021/12/27 00:35:41;;;;;;;20.83;10.13;;;;;2.00;99699.00;;;;5012816;28;20237;-72
2021/12/27 00:38:29;;;;;;;22.70;9.80;;;;;2.00;99695.00;;;;5004337;28;20241;-70
2021/12/27 00:41:16;;;;;;;19.07;9.03;;;;;2.00;99691.00;;;;4982299;28;20332;-70
2021/12/27 00:44:04;;;;;;;18.73;10.00;;;;;2.00;99695.00;;;;4979822;28;20219;-72
2021/12/27 00:46:50;;;;;;;17.73;9.73;;;;;2.00;99685.00;;;;4982810;28;20306;-71
2021/12/27 00:49:36;;;;;;;17.37;9.63;;;;;2.00;99677.00;;;;4980295;28;20231;-71
2021/12/27 00:52:23;;;;;;;19.57;9.63;;;;;2.00;99679.00;;;;4991005;28;20376;-72
2021/12/27 00:55:15;;;;;;;19.20;9.27;;;;;2.00;99681.00;;;;4998602;28;20250;-72
2021/12/27 00:58:01;;;;;;;18.13;9.17;;;;;2.10;99680.00;;;;5011193;28;20233;-71
2021/12/27 01:00:50;;;;;;;20.13;9.83;;;;;2.10;99674.00;;;;4995275;28;20237;-72
2021/12/27 01:03:37;;;;;;;19.97;10.43;;;;;2.10;99665.00;;;;5014472;28;20246;-72
2021/12/27 01:06:23;;;;;;;22.77;10.50;;;;;2.00;99668.00;;;;5002263;28;20629;-71
2021/12/27 01:09:13;;;;;;;19.33;10.23;;;;;2.00;99666.00;;;;4984893;28;20775;-72
2021/12/27 01:12:12;;;;;;;18.73;9.97;;;;;2.10;99672.00;;;;4995394;28;20235;-71
2021/12/27 01:15:12;;;;;;;20.40;9.97;;;;;2.10;99665.00;;;;5000913;28;20233;-71
2021/12/27 01:18:00;;;;;;;20.17;9.80;;;;;2.20;99673.00;;;;4996744;28;20307;-71
2021/12/27 01:20:47;;;;;;;23.13;10.20;;;;;2.20;99664.00;;;;4989590;28;20230;-72
2021/12/27 01:23:34;;;;;;;22.67;11.10;;;;;2.20;99649.00;;;;4995559;28;20234;-71
2021/12/27 01:26:20;;;;;;;19.43;10.20;;;;;2.20;99680.00;;;;4985094;28;20278;-70
2021/12/27 01:29:08;;;;;;;20.30;10.40;;;;;2.20;99686.00;;;;4977463;28;20230;-72
2021/12/27 01:31:54;;;;;;;21.27;10.37;;;;;2.20;99690.00;;;;5003797;28;20293;-73
2021/12/27 01:34:42;;;;;;;21.03;9.77;;;;;2.20;99683.00;;;;5002438;28;20738;-72
2021/12/27 01:37:28;;;;;;;21.27;10.30;;;;;2.20;99683.00;;;;5011275;28;20232;-70
2021/12/27 01:40:15;;;;;;;18.87;10.27;;;;;2.20;99671.00;;;;5006322;28;20237;-72
2021/12/27 01:43:08;;;;;;;23.23;10.37;;;;;2.20;99682.00;;;;4986255;28;20270;-72
2021/12/27 01:45:56;;;;;;;19.13;10.00;;;;;2.20;99670.00;;;;4985395;28;20226;-72
2021/12/27 01:48:47;;;;;;;21.93;10.00;;;;;2.30;99690.00;;;;5011028;28;20220;-70
2021/12/27 01:51:38;;;;;;;17.77;9.70;;;;;2.30;99647.00;;;;5011842;28;20249;-71
2021/12/27 01:54:24;;;;;;;20.17;10.23;;;;;2.30;99676.00;;;;5007199;28;20284;-71
2021/12/27 01:57:11;;;;;;;19.43;10.47;;;;;2.20;99678.00;;;;5010656;28;20757;-73
2021/12/27 01:59:57;;;;;;;17.93;10.23;;;;;2.30;99681.00;;;;4985589;28;20265;-72
2021/12/27 02:03:02;;;;;;;20.20;10.73;;;;;2.30;99663.00;;;;5001828;28;20276;-70
2021/12/27 02:05:49;;;;;;;19.97;10.63;;;;;2.30;99639.00;;;;5003165;28;20312;-72
2021/12/27 02:08:39;;;;;;;18.50;10.07;;;;;2.40;99660.00;;;;5008889;28;20325;-73
2021/12/27 02:11:27;;;;;;;20.27;10.27;;;;;2.30;99659.00;;;;5010415;28;20256;-72
2021/12/27 02:14:13;;;;;;;18.20;10.33;;;;;2.30;99655.00;;;;5008726;28;20237;-71
2021/12/27 02:17:01;;;;;;;18.43;8.67;;;;;2.30;99651.00;;;;5001234;28;20729;-71
2021/12/27 02:19:50;;;;;;;22.20;10.63;;;;;2.30;99663.00;;;;4985604;28;20282;-72
2021/12/27 02:22:39;;;;;;;20.47;10.47;;;;;2.30;99660.00;;;;4984217;28;20813;-72
2021/12/27 02:25:26;;;;;;;20.97;10.23;;;;;2.30;99666.00;;;;5009340;28;20234;-71
2021/12/27 02:28:13;;;;;;;20.80;10.33;;;;;2.30;99660.00;;;;5006182;28;20312;-72
2021/12/27 02:30:59;;;;;;;21.13;10.40;;;;;2.30;99653.00;;;;5005611;28;20226;-71
2021/12/27 02:33:46;;;;;;;23.77;10.30;;;;;2.40;99648.00;;;;5004604;28;20234;-71
2021/12/27 02:36:33;;;;;;;19.50;10.47;;;;;2.50;99638.00;;;;5001369;28;20238;-71
2021/12/27 02:39:20;;;;;;;17.80;9.63;;;;;2.40;99642.00;;;;5009846;28;20229;-72
2021/12/27 02:42:07;;;;;;;18.70;9.83;;;;;2.40;99639.00;;;;5000506;28;20235;-72
2021/12/27 02:44:53;;;;;;;20.80;10.70;;;;;2.40;99636.00;;;;4990496;28;20271;-72
2021/12/27 02:47:39;;;;;;;22.33;10.43;;;;;2.50;99638.00;;;;5001093;28;20272;-71
2021/12/27 02:50:27;;;;;;;19.70;10.00;;;;;2.50;99647.00;;;;5005316;28;20243;-70
2021/12/27 02:53:15;;;;;;;20.10;10.73;;;;;2.60;99625.00;;;;5000899;28;20239;-71
2021/12/27 02:56:04;;;;;;;19.70;9.80;;;;;2.60;99632.00;;;;5004762;28;20262;-71
2021/12/27 02:58:53;;;;;;;21.30;10.40;;;;;2.50;99634.00;;;;4995904;28;20784;-71
2021/12/27 03:01:39;;;;;;;18.80;9.93;;;;;2.50;99619.00;;;;5002622;28;20612;-70
2021/12/27 03:04:25;;;;;;;20.17;10.97;;;;;2.50;99626.00;;;;5006714;28;20238;-72
2021/12/27 03:07:11;;;;;;;21.57;10.57;;;;;2.50;99630.00;;;;5003508;28;20233;-71
2021/12/27 03:09:59;;;;;;;18.43;9.37;;;;;2.50;99620.00;;;;4990429;28;20246;-70
2021/12/27 03:12:46;;;;;;;19.17;9.47;;;;;2.50;99626.00;;;;4983449;28;20227;-70
2021/12/27 03:15:32;;;;;;;18.17;10.00;;;;;2.50;99620.00;;;;4986468;28;20359;-72
2021/12/27 03:18:18;;;;;;;18.80;10.13;;;;;2.60;99614.00;;;;4983025;28;20235;-72
2021/12/27 03:21:06;;;;;;;17.57;9.77;;;;;2.50;99606.00;;;;4982284;28;20243;-71
2021/12/27 03:23:54;;;;;;;24.60;11.27;;;;;2.50;99602.00;;;;4985542;28;20286;-71
2021/12/27 03:26:47;;;;;;;20.47;9.87;;;;;2.50;99609.00;;;;4983248;28;20686;-72
2021/12/27 03:29:33;;;;;;;19.83;10.37;;;;;2.50;99605.00;;;;4984821;28;21047;-72
2021/12/27 03:32:21;;;;;;;24.23;10.17;;;;;2.50;99608.00;;;;5001209;28;20238;-72
2021/12/27 03:35:13;;;;;;;22.33;10.17;;;;;2.50;99609.00;;;;5003445;28;20799;-67
2021/12/27 03:37:59;;;;;;;20.77;9.70;;;;;2.50;99603.00;;;;4987237;28;20239;-71
2021/12/27 03:40:48;;;;;;;18.37;9.83;;;;;2.60;99604.00;;;;4993296;28;20234;-71
2021/12/27 03:43:36;;;;;;;17.93;9.33;;;;;2.50;99592.00;;;;4984796;28;20238;-72
2021/12/27 03:46:22;;;;;;;17.13;9.30;;;;;2.50;99594.00;;;;5007786;28;20239;-69
2021/12/27 03:49:09;;;;;;;19.60;10.00;;;;;2.50;99598.00;;;;5002560;28;20230;-71
2021/12/27 03:51:56;;;;;;;17.77;9.60;;;;;2.50;99600.00;;;;5002468;28;20222;-73
2021/12/27 03:54:42;;;;;;;18.23;9.37;;;;;2.50;99601.00;;;;5005959;28;20580;-71
2021/12/27 03:57:31;;;;;;;17.83;9.50;;;;;2.60;99604.00;;;;4997372;28;20311;-70
2021/12/27 04:00:33;;;;;;;18.63;9.23;;;;;2.60;99600.00;;;;4993478;28;20258;-70
2021/12/27 04:03:19;;;;;;;20.17;9.77;;;;;2.60;99602.00;;;;4978528;28;20242;-69
2021/12/27 04:06:05;;;;;;;20.67;9.67;;;;;2.70;99598.00;;;;4983173;28;20382;-70
2021/12/27 04:08:52;;;;;;;20.73;10.93;;;;;2.60;99591.00;;;;4989619;28;20229;-70
2021/12/27 04:11:38;;;;;;;19.57;9.70;;;;;2.60;99593.00;;;;4987017;28;20232;-71
2021/12/27 04:14:25;;;;;;;19.90;10.50;;;;;2.50;99581.00;;;;5011910;28;20624;-70
2021/12/27 04:17:13;;;;;;;19.93;10.77;;;;;2.50;99588.00;;;;4992213;28;20772;-69
2021/12/27 04:19:59;;;;;;;19.83;10.10;;;;;2.50;99576.00;;;;5006056;28;20318;-71
2021/12/27 04:22:46;;;;;;;15.60;9.50;;;;;2.60;99575.00;;;;5010258;28;20245;-73
2021/12/27 04:25:33;;;;;;;20.27;10.13;;;;;2.60;99575.00;;;;5003402;28;20632;-72
2021/12/27 04:28:20;;;;;;;19.47;10.27;;;;;2.50;99586.00;;;;5007641;28;20298;-71
2021/12/27 04:31:06;;;;;;;20.63;10.07;;;;;2.50;99591.00;;;;5012683;28;20229;-70
2021/12/27 04:33:54;;;;;;;18.70;9.97;;;;;2.50;99586.00;;;;5000466;28;20290;-69
2021/12/27 04:36:40;;;;;;;20.43;10.03;;;;;2.50;99591.00;;;;5001122;28;20601;-70
2021/12/27 04:39:27;;;;;;;19.90;9.97;;;;;2.60;99577.00;;;;5013856;28;20229;-71
2021/12/27 04:42:13;;;;;;;23.07;11.27;;;;;2.60;99580.00;;;;4994216;28;20225;-69
2021/12/27 04:44:59;;;;;;;21.53;10.33;;;;;2.50;99576.00;;;;4998324;28;20230;-68
2021/12/27 04:47:46;;;;;;;18.73;9.90;;;;;2.50;99569.00;;;;4980682;28;20721;-70
2021/12/27 04:50:35;;;;;;;18.67;9.80;;;;;2.60;99571.00;;;;4984751;28;20246;-70
2021/12/27 04:53:21;;;;;;;17.80;9.33;;;;;2.60;99567.00;;;;4996481;28;20995;-71
2021/12/27 04:56:07;;;;;;;18.37;10.53;;;;;2.70;99565.00;;;;4979787;28;20299;-70
2021/12/27 04:58:53;;;;;;;21.43;10.60;;;;;2.70;99567.00;;;;4984432;28;20255;-71
2021/12/27 05:01:39;;;;;;;22.40;10.40;;;;;2.70;99555.00;;;;4982286;28;20278;-72
2021/12/27 05:04:25;;;;;;;21.30;10.90;;;;;2.70;99554.00;;;;5012116;28;20243;-72
2021/12/27 05:07:13;;;;;;;25.67;10.90;;;;;2.60;99546.00;;;;5009393;28;20288;-71
2021/12/27 05:10:00;;;;;;;17.87;9.97;;;;;2.70;99552.00;;;;5006869;28;20221;-68
2021/12/27 05:12:47;;;;;;;23.10;10.93;;;;;2.70;99540.00;;;;4993620;28;20234;-70
2021/12/27 05:15:33;;;;;;;24.07;11.57;;;;;2.80;99547.00;;;;4996511;28;20238;-70
2021/12/27 05:18:19;;;;;;;22.30;10.70;;;;;2.70;99531.00;;;;5001463;28;20262;-69
2021/12/27 05:21:05;;;;;;;21.03;10.97;;;;;2.70;99537.00;;;;5003303;28;20601;-69
2021/12/27 05:23:53;;;;;;;22.73;11.10;;;;;2.70;99531.00;;;;4981245;28;20775;-69
2021/12/27 05:26:40;;;;;;;21.27;10.57;;;;;2.70;99534.00;;;;4984315;28;20221;-70
2021/12/27 05:29:26;;;;;;;20.77;10.77;;;;;2.80;99522.00;;;;5011199;28;20229;-72
2021/12/27 05:32:13;;;;;;;23.50;10.83;;;;;2.80;99527.00;;;;4985649;28;20231;-69
2021/12/27 05:34:59;;;;;;;20.80;10.93;;;;;2.70;99525.00;;;;4983744;28;20231;-71
2021/12/27 05:37:46;;;;;;;21.70;10.50;;;;;2.70;99528.00;;;;4983614;28;20239;-70
2021/12/27 05:40:35;;;;;;;22.60;10.80;;;;;2.80;99523.00;;;;4992581;28;20304;-70
2021/12/27 05:43:22;;;;;;;20.13;11.30;;;;;2.70;99525.00;;;;5010864;28;20239;-71
2021/12/27 05:46:08;;;;;;;18.17;9.37;;;;;2.70;99523.00;;;;5006401;28;20225;-70
2021/12/27 05:48:54;;;;;;;19.07;9.93;;;;;2.80;99513.00;;;;4999203;28;20233;-71
2021/12/27 05:51:41;;;;;;;19.40;10.23;;;;;2.80;99512.00;;;;5006922;28;20364;-70
2021/12/27 05:54:27;;;;;;;23.30;10.83;;;;;2.70;99521.00;;;;5000782;28;20374;-70
2021/12/27 05:57:15;;;;;;;24.30;11.23;;;;;2.70;99531.00;;;;5002095;28;20241;-70
2021/12/27 06:00:07;;;;;;;23.53;10.80;;;;;2.70;99518.00;;;;5006416;28;20311;-69
2021/12/27 06:02:54;;;;;;;20.63;10.30;;;;;2.80;99525.00;;;;4991978;28;20329;-70
2021/12/27 06:05:41;;;;;;;20.83;10.27;;;;;2.90;99518.00;;;;5006816;28;20255;-71
2021/12/27 06:08:27;;;;;;;22.03;10.83;;;;;2.90;99515.00;;;;5031381;28;20216;-72
2021/12/27 06:11:14;;;;;;;20.70;10.90;;;;;2.90;99507.00;;;;5030242;28;20227;-72
2021/12/27 06:14:01;;;;;;;22.87;11.63;;;;;2.90;99519.00;;;;5029441;28;20244;-73
2021/12/27 06:16:48;;;;;;;24.90;11.73;;;;;3.00;99506.00;;;;5018125;28;20230;-72
2021/12/27 06:19:34;;;;;;;23.90;12.17;;;;;2.90;99497.00;;;;5009649;28;20225;-73
2021/12/27 06:22:21;;;;;;;23.30;11.97;;;;;3.10;99517.00;;;;5021717;28;20218;-74
2021/12/27 06:25:08;;;;;;;23.97;11.20;;;;;3.10;99513.00;;;;5016641;28;20238;-73
2021/12/27 06:27:55;;;;;;;23.13;11.87;;;;;3.10;99509.00;;;;5013690;28;20239;-72
2021/12/27 06:30:43;;;;;;;22.43;11.43;;;;;3.00;99479.00;;;;5010032;28;20229;-73
2021/12/27 06:33:29;;;;;;;20.03;10.60;;;;;3.10;99508.00;;;;5019352;28;20319;-72
2021/12/27 06:36:18;;;;;;;20.97;10.90;;;;;3.00;99498.00;;;;5024795;28;20233;-73
2021/12/27 06:39:08;;;;;;;23.60;10.60;;;;;3.00;99486.00;;;;5010407;28;20246;-74
2021/12/27 06:41:54;;;;;;;19.93;10.33;;;;;3.10;99498.00;;;;5008409;28;20331;-71
2021/12/27 06:44:41;;;;;;;24.03;10.67;;;;;3.00;99504.00;;;;4985443;28;20233;-70
2021/12/27 06:47:29;;;;;;;18.87;10.83;;;;;3.00;99507.00;;;;4988485;28;20234;-71
2021/12/27 06:50:15;;;;;;;21.40;11.03;;;;;3.10;99503.00;;;;4991865;28;20233;-71
2021/12/27 06:53:02;;;;;;;22.67;11.70;;;;;3.10;99501.00;;;;4996319;28;20230;-71
2021/12/27 06:55:48;;;;;;;22.63;12.00;;;;;3.20;99476.00;;;;4998086;28;20248;-71
2021/12/27 06:58:35;;;;;;;27.37;13.30;;;;;3.00;99498.00;;;;4985577;28;20242;-71
2021/12/27 07:01:22;;;;;;;20.63;10.80;;;;;3.00;99487.00;;;;4992074;28;20236;-71
2021/12/27 07:04:09;;;;;;;25.33;14.07;;;;;3.00;99498.00;;;;5005164;28;20238;-71
2021/12/27 07:06:56;;;;;;;24.03;13.30;;;;;3.00;99492.00;;;;4998743;28;20239;-70
2021/12/27 07:09:43;;;;;;;20.67;10.20;;;;;3.00;99496.00;;;;4987987;28;20603;-72
2021/12/27 07:12:30;;;;;;;23.60;11.47;;;;;3.00;99505.00;;;;4990790;28;20224;-72
2021/12/27 07:15:17;;;;;;;19.03;10.47;;;;;3.00;99497.00;;;;5003939;28;20611;-72
2021/12/27 07:18:03;;;;;;;20.10;10.77;;;;;3.00;99508.00;;;;5002184;28;21744;-72
2021/12/27 07:20:52;;;;;;;22.67;10.73;;;;;3.00;99502.00;;;;4994853;28;20285;-73
2021/12/27 07:23:38;;;;;;;20.53;10.63;;;;;3.00;99486.00;;;;4981915;28;20383;-72
2021/12/27 07:26:24;;;;;;;19.27;10.53;;;;;3.00;99502.00;;;;4987387;28;20387;-72
2021/12/27 07:29:11;;;;;;;20.43;10.70;;;;;3.00;99508.00;;;;4999422;28;20641;-72
2021/12/27 07:31:58;;;;;;;20.20;10.30;;;;;3.00;99514.00;;;;4999325;28;20236;-72
2021/12/27 07:34:45;;;;;;;20.23;10.23;;;;;2.90;99510.00;;;;4995126;28;20239;-72
2021/12/27 07:37:33;;;;;;;19.70;10.03;;;;;3.00;99514.00;;;;4988284;28;20278;-73
2021/12/27 07:40:20;;;;;;;17.90;9.63;;;;;3.00;99504.00;;;;4997519;28;20613;-72
2021/12/27 07:43:06;;;;;;;20.07;10.90;;;;;3.00;99515.00;;;;5000472;28;20362;-72
2021/12/27 07:45:53;;;;;;;19.23;10.00;;;;;3.00;99505.00;;;;4983773;28;20596;-71
2021/12/27 07:48:39;;;;;;;21.90;10.77;;;;;3.10;99515.00;;;;4979881;28;20238;-72
2021/12/27 07:51:25;;;;;;;19.43;10.73;;;;;3.10;99519.00;;;;4988634;28;20233;-71
2021/12/27 07:54:14;;;;;;;21.10;11.03;;;;;3.20;99509.00;;;;4992315;28;20316;-72
2021/12/27 07:57:00;;;;;;;20.77;10.53;;;;;3.10;99502.00;;;;4989675;28;20627;-72
2021/12/27 07:59:47;;;;;;;19.57;10.80;;;;;3.30;99493.00;;;;4990204;28;20281;-73
2021/12/27 08:02:33;;;;;;;24.40;10.73;;;;;3.20;99496.00;;;;4978386;28;20245;-76
2021/12/27 08:05:20;;;;;;;22.77;11.00;;;;;3.20;99497.00;;;;5009055;28;20233;-72
2021/12/27 08:08:06;;;;;;;20.90;10.87;;;;;3.30;99497.00;;;;5001537;28;20283;-72
2021/12/27 08:10:54;;;;;;;18.97;10.40;;;;;3.30;99485.00;;;;4993586;28;20394;-72
2021/12/27 08:13:42;;;;;;;20.63;10.67;;;;;3.30;99491.00;;;;4985802;28;20837;-72
2021/12/27 08:16:28;;;;;;;21.07;11.03;;;;;3.30;99501.00;;;;4982063;28;20231;-73
2021/12/27 08:19:14;;;;;;;19.23;10.63;;;;;3.20;99483.00;;;;4985275;28;20313;-73
2021/12/27 08:22:02;;;;;;;20.30;11.20;;;;;3.20;99488.00;;;;4987297;28;20230;-73
2021/12/27 08:24:48;;;;;;;18.23;10.60;;;;;3.20;99490.00;;;;4991208;28;20820;-72
2021/12/27 08:27:37;;;;;;;22.27;12.03;;;;;3.20;99498.00;;;;5002059;28;20362;-73
2021/12/27 08:30:23;;;;;;;23.20;12.10;;;;;3.30;99494.00;;;;4984807;28;20310;-73
2021/12/27 08:33:09;;;;;;;26.50;13.40;;;;;3.30;99487.00;;;;5000547;28;21506;-73
2021/12/27 08:35:56;;;;;;;22.03;12.13;;;;;3.40;99485.00;;;;4993801;28;20406;-75
2021/12/27 08:38:44;;;;;;;27.83;12.83;;;;;3.40;99481.00;;;;4994341;28;20851;-76
2021/12/27 08:41:30;;;;;;;26.53;12.03;;;;;3.50;99482.00;;;;4990165;28;20277;-74
2021/12/27 08:44:18;;;;;;;21.87;10.97;;;;;3.50;99481.00;;;;4995451;28;20242;-75
2021/12/27 08:47:05;;;;;;;23.10;11.87;;;;;3.50;99481.00;;;;4994176;28;20247;-72
2021/12/27 08:49:52;;;;;;;23.73;12.00;;;;;3.60;99478.00;;;;4996933;28;20233;-73
2021/12/27 08:52:50;;;;;;;20.37;10.63;;;;;3.70;99482.00;;;;4998210;28;20226;-72
2021/12/27 08:55:37;;;;;;;16.97;10.37;;;;;3.70;99466.00;;;;5002667;28;20268;-71
2021/12/27 08:58:23;;;;;;;20.80;11.33;;;;;3.80;99468.00;;;;4996641;28;20234;-72
2021/12/27 09:01:11;;;;;;;21.23;12.10;;;;;3.80;99464.00;;;;5000520;28;20253;-73
2021/12/27 09:03:58;;;;;;;20.03;12.10;;;;;3.80;99460.00;;;;5001801;28;20721;-74
2021/12/27 09:06:44;;;;;;;18.27;10.40;;;;;3.90;99456.00;;;;4993698;28;20230;-74
2021/12/27 09:09:31;;;;;;;23.00;11.90;;;;;3.90;99462.00;;;;4985398;28;20298;-74
2021/12/27 09:12:17;;;;;;;22.63;12.10;;;;;4.00;99472.00;;;;4982595;28;20227;-76
2021/12/27 09:15:04;;;;;;;19.23;11.10;;;;;3.90;99472.00;;;;4977962;28;20356;-74
2021/12/27 09:17:52;;;;;;;20.47;11.03;;;;;4.00;99450.00;;;;4994942;28;20241;-74
2021/12/27 09:20:38;;;;;;;21.73;12.17;;;;;4.10;99463.00;;;;4999706;28;20714;-72
2021/12/27 09:23:25;;;;;;;26.33;13.70;;;;;4.10;99472.00;;;;4999737;28;20234;-73
2021/12/27 09:26:11;;;;;;;21.73;11.17;;;;;4.20;99468.00;;;;4997613;28;20601;-73
2021/12/27 09:28:58;;;;;;;23.30;12.77;;;;;4.20;99471.00;;;;4997621;28;20280;-73
2021/12/27 09:31:44;;;;;;;22.23;12.27;;;;;4.20;99476.00;;;;4991473;28;20231;-74
2021/12/27 09:34:32;;;;;;;19.70;10.77;;;;;4.40;99476.00;;;;4996312;28;20282;-76
2021/12/27 09:37:19;;;;;;;26.30;12.27;;;;;4.30;99475.00;;;;5000246;28;20230;-73
2021/12/27 09:40:06;;;;;;;27.23;15.03;;;;;4.60;99478.00;;;;4991365;28;20234;-74
2021/12/27 09:42:53;;;;;;;26.97;13.13;;;;;4.70;99468.00;;;;4991627;28;20777;-72
2021/12/27 09:45:40;;;;;;;18.73;11.37;;;;;4.80;99455.00;;;;4994866;28;20234;-71
2021/12/27 09:48:26;;;;;;;22.37;11.37;;;;;4.90;99448.00;;;;5003702;28;20277;-72
2021/12/27 09:51:14;;;;;;;18.63;10.47;;;;;5.10;99451.00;;;;4996891;28;20234;-72
2021/12/27 09:54:03;;;;;;;24.43;10.83;;;;;5.30;99453.00;;;;4991229;28;20277;-75
2021/12/27 09:56:49;;;;;;;70.00;30.80;;;;;5.20;99460.00;;;;5000876;28;20237;-72
2021/12/27 09:59:36;;;;;;;28.87;16.10;;;;;5.20;99451.00;;;;4998016;28;20242;-74
2021/12/27 10:02:23;;;;;;;19.27;10.87;;;;;5.10;99426.00;;;;5000996;28;20698;-72
2021/12/27 10:05:10;;;;;;;22.00;12.50;;;;;5.20;99446.00;;;;4999787;28;20265;-72
2021/12/27 10:07:58;;;;;;;25.43;12.40;;;;;5.20;99431.00;;;;4996585;28;20249;-74
2021/12/27 10:10:49;;;;;;;41.93;19.87;;;;;5.10;99439.00;;;;4998940;28;20325;-72
2021/12/27 10:13:35;;;;;;;20.43;11.80;;;;;5.00;99427.00;;;;5010693;28;20768;-74
2021/12/27 10:16:22;;;;;;;18.90;9.70;;;;;5.10;99435.00;;;;5004891;28;20230;-74
2021/12/27 10:19:10;;;;;;;17.17;9.83;;;;;5.40;99426.00;;;;5002995;28;20512;-74
2021/12/27 10:22:01;;;;;;;16.50;9.83;;;;;5.40;99425.00;;;;5002656;28;20309;-73
2021/12/27 10:24:52;;;;;;;18.83;10.30;;;;;5.40;99414.00;;;;5019980;28;20254;-74
2021/12/27 10:27:39;;;;;;;15.30;9.17;;;;;5.50;99420.00;;;;5010637;28;20240;-74
2021/12/27 10:30:26;;;;;;;17.10;10.27;;;;;5.50;99439.00;;;;5006265;28;20237;-74
2021/12/27 10:33:16;;;;;;;14.47;9.37;;;;;5.40;99425.00;;;;5000243;28;20232;-74
2021/12/27 10:36:03;;;;;;;16.00;9.23;;;;;5.50;99444.00;;;;4996807;28;20227;-74
2021/12/27 10:38:54;;;;;;;14.23;8.87;;;;;5.50;99430.00;;;;5003907;28;20745;-74
2021/12/27 10:41:42;;;;;;;15.33;8.80;;;;;5.60;99433.00;;;;5017528;28;20759;-76
2021/12/27 10:44:28;;;;;;;13.23;8.50;;;;;5.50;99426.00;;;;5003521;28;20251;-75
2021/12/27 10:47:30;;;;;;;15.97;8.60;;;;;5.70;99428.00;;;;5016355;28;20280;-73
2021/12/27 10:50:23;;;;;;;15.77;8.90;;;;;5.70;99418.00;;;;5003725;28;20237;-75
2021/12/27 10:53:10;;;;;;;17.50;10.00;;;;;5.80;99416.00;;;;4996058;28;20309;-74
2021/12/27 10:55:57;;;;;;;15.17;9.73;;;;;5.90;99409.00;;;;5003374;28;20228;-74
2021/12/27 10:58:49;;;;;;;14.63;9.13;;;;;6.00;99402.00;;;;5010154;28;20237;-72
2021/12/27 11:01:40;;;;;;;17.60;9.60;;;;;5.90;99403.00;;;;5023559;28;20498;-76
2021/12/27 11:04:27;;;;;;;29.10;14.17;;;;;6.00;99397.00;;;;5013951;28;20241;-73
2021/12/27 11:07:14;;;;;;;21.47;11.67;;;;;6.10;99406.00;;;;5006639;28;20237;-72
2021/12/27 11:10:01;;;;;;;19.30;9.70;;;;;6.10;99390.00;;;;5015823;28;20322;-73
2021/12/27 11:12:49;;;;;;;16.13;10.10;;;;;6.10;99404.00;;;;5013509;28;20235;-75
2021/12/27 11:15:40;;;;;;;18.30;10.47;;;;;6.20;99414.00;;;;5021478;28;20499;-76
2021/12/27 11:18:27;;;;;;;51.67;23.57;;;;;6.40;99391.00;;;;4989439;28;20250;-74
2021/12/27 11:21:15;;;;;;;36.13;17.47;;;;;6.50;99385.00;;;;5002971;28;20242;-73
2021/12/27 11:24:02;;;;;;;20.10;10.70;;;;;6.60;99383.00;;;;5007393;28;20242;-71
2021/12/27 11:26:50;;;;;;;18.10;9.87;;;;;6.70;99389.00;;;;5005474;28;20233;-74
2021/12/27 11:29:36;;;;;;;15.60;9.70;;;;;6.80;99367.00;;;;4997352;28;20632;-71
2021/12/27 11:32:24;;;;;;;15.20;9.27;;;;;6.70;99385.00;;;;4997398;28;20234;-75
2021/12/27 11:35:12;;;;;;;14.60;8.93;;;;;6.70;99384.00;;;;5003137;28;20234;-75
2021/12/27 11:38:01;;;;;;;15.83;9.10;;;;;6.70;99385.00;;;;5002522;28;20627;-74
2021/12/27 11:40:49;;;;;;;15.20;8.60;;;;;6.70;99382.00;;;;4986211;28;20389;-74
2021/12/27 11:43:49;;;;;;;12.77;8.47;;;;;6.70;99370.00;;;;4994697;28;20235;-74
2021/12/27 11:46:57;;;;;;;17.03;8.60;;;;;6.90;99368.00;;;;4994893;28;20374;-74
2021/12/27 11:49:58;;;;;;;16.20;9.23;;;;;7.00;99358.00;;;;4980239;28;20235;-73
2021/12/27 11:52:49;;;;;;;14.10;9.40;;;;;7.10;99365.00;;;;4996720;28;20233;-75
2021/12/27 11:55:40;;;;;;;15.23;10.10;;;;;7.20;99348.00;;;;4988971;28;20302;-73
2021/12/27 11:58:32;;;;;;;15.10;9.37;;;;;7.20;99342.00;;;;4993943;28;20234;-75
2021/12/27 12:01:37;;;;;;;15.87;9.77;;;;;7.30;99340.00;;;;4985755;28;20312;-74
2021/12/27 12:04:41;;;;;;;15.73;9.47;;;;;7.30;99343.00;;;;4996825;28;20657;-75
2021/12/27 12:07:51;;;;;;;14.50;9.37;;;;;7.40;99324.00;;;;5010955;28;20737;-73
2021/12/27 12:10:38;;;;;;;14.47;9.20;;;;;7.70;99314.00;;;;4993387;28;20235;-74
2021/12/27 12:13:28;;;;;;;12.57;8.80;;;;;7.90;99328.00;;;;4990093;28;20294;-72
2021/12/27 12:16:17;;;;;;;15.07;8.93;;;;;7.90;99324.00;;;;4976427;28;20716;-71
2021/12/27 12:19:09;;;;;;;13.47;8.23;;;;;7.80;99326.00;;;;4992111;28;20317;-73
2021/12/27 12:21:56;;;;;;;13.43;8.30;;;;;7.90;99317.00;;;;4996246;28;20955;-73
2021/12/27 12:24:44;;;;;;;11.00;7.77;;;;;7.70;99329.00;;;;4996241;28;20297;-75
2021/12/27 12:27:30;;;;;;;12.00;7.73;;;;;7.60;99334.00;;;;4994605;28;20302;-75
2021/12/27 12:30:17;;;;;;;12.00;7.40;;;;;7.50;99331.00;;;;4990592;28;20618;-76
2021/12/27 12:33:06;;;;;;;11.33;8.07;;;;;7.40;99327.00;;;;4991194;28;20342;-74
2021/12/27 12:35:56;;;;;;;11.67;7.80;;;;;7.40;99321.00;;;;4979158;28;20242;-74
2021/12/27 12:38:43;;;;;;;12.93;7.83;;;;;7.40;99324.00;;;;4984825;28;20273;-75
2021/12/27 12:41:30;;;;;;;12.83;7.50;;;;;7.40;99307.00;;;;4995103;28;20727;-74
2021/12/27 12:44:17;;;;;;;10.07;6.53;;;;;7.60;99298.00;;;;4987144;28;20268;-74
2021/12/27 12:47:05;;;;;;;9.23;6.43;;;;;7.60;99300.00;;;;4999106;28;20232;-75
2021/12/27 12:49:57;;;;;;;10.60;6.73;;;;;7.70;99291.00;;;;4985829;28;20234;-74
2021/12/27 12:52:54;;;;;;;10.20;6.27;;;;;7.80;99266.00;;;;4990825;28;20238;-73
2021/12/27 12:55:40;;;;;;;9.33;5.90;;;;;8.10;99287.00;;;;4996597;28;20238;-71
2021/12/27 12:58:34;;;;;;;10.83;6.77;;;;;8.10;99284.00;;;;4997902;28;20237;-72
2021/12/27 13:01:20;;;;;;;122.63;55.97;;;;;8.00;99285.00;;;;4997771;28;20234;-72
2021/12/27 13:04:07;;;;;;;15.60;8.60;;;;;8.10;99284.00;;;;5000170;28;20777;-71
2021/12/27 13:06:53;;;;;;;15.73;8.53;;;;;8.20;99275.00;;;;4986505;28;20230;-72
2021/12/27 13:09:41;;;;;;;19.37;10.93;;;;;8.30;99273.00;;;;4987357;28;20515;-75
2021/12/27 13:12:29;;;;;;;9.30;6.00;;;;;8.20;99274.00;;;;5001618;28;20231;-73
2021/12/27 13:15:20;;;;;;;8.30;4.80;;;;;8.10;99275.00;;;;5001435;28;20346;-72
2021/12/27 13:18:09;;;;;;;6.40;4.73;;;;;8.00;99284.00;;;;5000493;28;20335;-73
2021/12/27 13:20:57;;;;;;;9.60;5.80;;;;;8.00;99273.00;;;;4997735;28;20230;-72
2021/12/27 13:23:43;;;;;;;7.50;4.70;;;;;7.90;99285.00;;;;4994538;28;20621;-74
2021/12/27 13:26:30;;;;;;;7.37;4.43;;;;;7.90;99288.00;;;;4997990;28;20295;-75
2021/12/27 13:29:19;;;;;;;8.73;4.97;;;;;8.00;99288.00;;;;4998341;28;20336;-71
2021/12/27 13:32:07;;;;;;;8.47;5.23;;;;;8.00;99294.00;;;;5009012;28;20231;-71
2021/12/27 13:34:53;;;;;;;12.57;6.23;;;;;8.00;99289.00;;;;5008549;28;20722;-71
2021/12/27 13:37:40;;;;;;;9.83;5.73;;;;;7.90;99299.00;;;;5022264;28;20663;-72
2021/12/27 13:40:26;;;;;;;9.60;6.40;;;;;7.90;99298.00;;;;5006345;28;20996;-74
2021/12/27 13:43:12;;;;;;;6.00;4.80;;;;;7.90;99310.00;;;;4987476;28;20245;-74
2021/12/27 13:46:10;;;;;;;7.97;5.03;;;;;7.90;99300.00;;;;5003994;28;20306;-71
2021/12/27 13:49:00;;;;;;;7.73;5.27;;;;;8.00;99292.00;;;;4996634;28;20232;-74
2021/12/27 13:51:47;;;;;;;6.93;4.40;;;;;8.00;99294.00;;;;4983134;28;20230;-73
2021/12/27 13:54:42;;;;;;;8.37;4.93;;;;;8.10;99294.00;;;;4997342;28;20731;-73